Time;durP1;ratioP1;P1;durP2;ratioP2;P2;SDS_P1;SDS_P2;PMS_P1;PMS_P2;Temp;Humidity;BMP_temperature;BMP_pressure;BME280_temperature;BME280_humidity;BME280_pressure;Samples;Min_cycle;Max_cycle;Signal;HPM_P1;HPM_P2
2022/04/06 00:00:48;;;;;;;29.50;20.20;;;;;;;;;;5135870;27;20068;-74
2022/04/06 00:03:13;;;;;;;29.60;19.40;;;;;;;;;;5135820;27;20023;-73
2022/04/06 00:05:38;;;;;;;28.73;20.15;;;;;;;;;;5136307;27;20495;-74
2022/04/06 00:08:04;;;;;;;28.42;20.00;;;;;;;;;;5135791;27;20031;-74
2022/04/06 00:10:31;;;;;;;32.13;21.80;;;;;;;;;;5135811;27;20021;-74
2022/04/06 00:12:56;;;;;;;29.52;20.60;;;;;;;;;;5136087;27;20702;-75
2022/04/06 00:15:22;;;;;;;33.97;21.80;;;;;;;;;;5134301;27;20152;-74
2022/04/06 00:17:47;;;;;;;36.58;23.00;;;;;;;;;;5135513;27;20129;-74
2022/04/06 00:20:12;;;;;;;32.95;22.80;;;;;;;;;;5135512;27;20012;-74
2022/04/06 00:22:38;;;;;;;33.25;22.83;;;;;;;;;;5135657;27;20022;-74
2022/04/06 00:25:03;;;;;;;34.45;21.92;;;;;;;;;;5135415;27;20487;-74
2022/04/06 00:27:29;;;;;;;32.30;21.33;;;;;;;;;;5135381;27;20376;-74
2022/04/06 00:29:54;;;;;;;35.53;22.30;;;;;;;;;;5135141;27;20428;-74
2022/04/06 00:32:20;;;;;;;33.88;22.42;;;;;;;;;;5135535;27;20023;-74
2022/04/06 00:37:29;;;;;;;32.45;22.40;;;;;;;;;;5135640;27;20399;-74
2022/04/06 00:39:54;;;;;;;32.00;21.83;;;;;;;;;;5135233;27;20035;-73
2022/04/06 00:42:19;;;;;;;32.53;21.60;;;;;;;;;;5135141;27;20023;-74
2022/04/06 00:44:45;;;;;;;34.03;22.35;;;;;;;;;;5135753;27;20019;-76
2022/04/06 00:47:10;;;;;;;31.25;21.42;;;;;;;;;;5136658;27;20091;-74
2022/04/06 00:49:35;;;;;;;34.58;22.75;;;;;;;;;;5138915;27;20031;-75
2022/04/06 00:52:02;;;;;;;38.25;22.45;;;;;;;;;;5135432;27;20007;-74
2022/04/06 00:54:29;;;;;;;32.58;23.15;;;;;;;;;;5133602;27;20019;-74
2022/04/06 00:56:54;;;;;;;32.85;22.13;;;;;;;;;;5134667;27;20026;-74
2022/04/06 00:59:19;;;;;;;32.75;21.77;;;;;;;;;;5133505;27;20031;-75
2022/04/06 01:01:45;;;;;;;32.38;21.77;;;;;;;;;;5133641;27;20023;-74
2022/04/06 01:04:11;;;;;;;30.95;21.13;;;;;;;;;;5132599;27;20023;-74
2022/04/06 01:06:36;;;;;;;32.33;21.10;;;;;;;;;;5134211;27;20007;-74
2022/04/06 01:09:02;;;;;;;32.90;21.08;;;;;;;;;;5134047;27;20038;-75
2022/04/06 01:11:27;;;;;;;31.25;21.90;;;;;;;;;;5134141;27;20059;-74
2022/04/06 01:13:54;;;;;;;27.05;18.73;;;;;;;;;;5134422;27;20045;-74
2022/04/06 01:16:20;;;;;;;29.75;21.05;;;;;;;;;;5134080;27;20142;-74
2022/04/06 01:18:45;;;;;;;32.00;21.73;;;;;;;;;;5134013;27;20107;-74
2022/04/06 01:21:11;;;;;;;32.63;20.05;;;;;;;;;;5134278;27;20031;-73
2022/04/06 01:23:39;;;;;;;30.70;21.45;;;;;;;;;;5134420;27;20019;-74
2022/04/06 01:26:04;;;;;;;29.38;19.92;;;;;;;;;;5134235;27;20019;-74
2022/04/06 01:28:29;;;;;;;30.88;19.73;;;;;;;;;;5134319;27;20019;-81
2022/04/06 01:30:55;;;;;;;29.35;20.90;;;;;;;;;;5134345;27;20038;-75
2022/04/06 01:33:20;;;;;;;34.70;21.85;;;;;;;;;;5134004;27;20015;-74
2022/04/06 01:35:46;;;;;;;31.30;21.25;;;;;;;;;;5134597;27;20023;-74
2022/04/06 01:38:12;;;;;;;33.70;21.60;;;;;;;;;;5132557;27;20030;-74
2022/04/06 01:40:37;;;;;;;33.42;21.23;;;;;;;;;;5133817;27;20019;-74
2022/04/06 01:43:02;;;;;;;30.00;21.30;;;;;;;;;;5137593;27;20026;-75
2022/04/06 01:45:27;;;;;;;32.17;20.77;;;;;;;;;;5134558;27;20031;-74
2022/04/06 01:47:53;;;;;;;29.55;21.88;;;;;;;;;;5133787;27;20055;-74
2022/04/06 01:53:03;;;;;;;36.10;22.45;;;;;;;;;;5133925;27;20486;-74
2022/04/06 01:55:28;;;;;;;31.48;21.95;;;;;;;;;;5133816;27;20015;-74
2022/04/06 01:57:54;;;;;;;33.05;22.33;;;;;;;;;;5133663;27;20045;-74
2022/04/06 02:00:19;;;;;;;35.28;24.00;;;;;;;;;;5133543;27;20015;-74
2022/04/06 02:02:47;;;;;;;30.67;20.52;;;;;;;;;;5133685;27;20077;-74
2022/04/06 02:05:13;;;;;;;31.95;22.88;;;;;;;;;;5133823;27;20019;-73
2022/04/06 02:07:38;;;;;;;36.28;21.60;;;;;;;;;;5133567;27;20019;-73
2022/04/06 02:10:04;;;;;;;32.05;21.92;;;;;;;;;;5133329;27;20023;-73
2022/04/06 02:12:29;;;;;;;37.65;24.00;;;;;;;;;;5132086;27;20029;-73
2022/04/06 02:14:55;;;;;;;35.30;24.17;;;;;;;;;;5131896;27;20519;-74
2022/04/06 02:17:20;;;;;;;37.92;24.55;;;;;;;;;;5133417;27;20365;-74
2022/04/06 02:19:46;;;;;;;40.90;23.17;;;;;;;;;;5132612;27;20031;-74
2022/04/06 02:22:11;;;;;;;41.60;24.42;;;;;;;;;;5128676;27;20007;-74
2022/04/06 02:24:36;;;;;;;35.03;23.42;;;;;;;;;;5122168;27;20022;-74
2022/04/06 02:27:04;;;;;;;34.47;25.05;;;;;;;;;;5131318;27;20019;-74
2022/04/06 02:29:29;;;;;;;35.53;22.58;;;;;;;;;;5115233;27;20016;-74
2022/04/06 02:31:55;;;;;;;37.15;24.17;;;;;;;;;;5112105;28;20392;-74
2022/04/06 02:34:20;;;;;;;31.52;22.52;;;;;;;;;;5112036;28;20038;-74
2022/04/06 02:36:45;;;;;;;36.63;23.85;;;;;;;;;;5111433;28;20117;-74
2022/04/06 02:39:11;;;;;;;37.97;23.90;;;;;;;;;;5115078;28;20035;-74
2022/04/06 02:41:36;;;;;;;36.70;25.83;;;;;;;;;;5111929;28;20019;-74
2022/04/06 02:44:01;;;;;;;41.58;22.92;;;;;;;;;;5111860;28;20003;-74
2022/04/06 02:46:26;;;;;;;31.30;22.13;;;;;;;;;;5111744;28;20051;-74
2022/04/06 02:48:52;;;;;;;33.05;23.10;;;;;;;;;;5111891;28;20011;-74
2022/04/06 02:51:17;;;;;;;30.67;21.67;;;;;;;;;;5111877;28;20052;-74
2022/04/06 02:53:42;;;;;;;40.28;22.92;;;;;;;;;;5110044;28;20027;-75
2022/04/06 02:56:08;;;;;;;33.38;23.27;;;;;;;;;;5111989;28;20019;-74
2022/04/06 02:58:33;;;;;;;38.45;23.15;;;;;;;;;;5113318;28;20036;-74
2022/04/06 03:00:58;;;;;;;31.42;22.70;;;;;;;;;;5113574;28;20023;-74
2022/04/06 03:03:24;;;;;;;32.65;22.73;;;;;;;;;;5111676;28;20016;-74
2022/04/06 03:05:49;;;;;;;37.70;23.83;;;;;;;;;;5112118;28;20023;-74
2022/04/06 03:08:15;;;;;;;35.78;23.98;;;;;;;;;;5111433;28;20066;-74
2022/04/06 03:10:40;;;;;;;36.63;22.35;;;;;;;;;;5111273;28;20020;-74
2022/04/06 03:13:05;;;;;;;36.08;24.02;;;;;;;;;;5110121;28;20114;-74
2022/04/06 03:15:30;;;;;;;37.28;22.70;;;;;;;;;;5111251;27;20075;-75
2022/04/06 03:17:56;;;;;;;37.85;24.60;;;;;;;;;;5126108;27;20038;-74
2022/04/06 03:20:21;;;;;;;37.72;23.05;;;;;;;;;;5130532;27;20027;-80
2022/04/06 03:22:46;;;;;;;32.55;22.58;;;;;;;;;;5118950;27;20022;-74
2022/04/06 03:25:11;;;;;;;35.15;23.50;;;;;;;;;;5110812;28;20042;-74
2022/04/06 03:27:37;;;;;;;34.20;24.33;;;;;;;;;;5110801;28;20023;-74
2022/04/06 03:30:06;;;;;;;36.65;23.23;;;;;;;;;;5109238;28;20119;-74
2022/04/06 03:32:31;;;;;;;37.47;23.67;;;;;;;;;;5112476;28;20026;-79
2022/04/06 03:34:57;;;;;;;38.40;23.75;;;;;;;;;;5112425;28;20137;-74
2022/04/06 03:37:22;;;;;;;35.88;23.55;;;;;;;;;;5110174;28;20385;-74
2022/04/06 03:39:48;;;;;;;33.60;22.85;;;;;;;;;;5109481;28;20031;-74
2022/04/06 03:42:13;;;;;;;35.67;23.65;;;;;;;;;;5111062;28;20020;-74
2022/04/06 03:44:38;;;;;;;45.53;23.88;;;;;;;;;;5111195;28;20028;-74
2022/04/06 03:47:03;;;;;;;37.80;24.40;;;;;;;;;;5110738;28;20024;-74
2022/04/06 03:49:29;;;;;;;36.92;25.48;;;;;;;;;;5110911;28;20452;-74
2022/04/06 03:51:54;;;;;;;40.15;25.70;;;;;;;;;;5110954;28;20073;-75
2022/04/06 03:54:19;;;;;;;39.33;25.70;;;;;;;;;;5111105;28;20012;-74
2022/04/06 03:56:44;;;;;;;39.50;24.98;;;;;;;;;;5111107;28;20027;-74
2022/04/06 03:59:10;;;;;;;33.03;24.55;;;;;;;;;;5111147;28;20514;-75
2022/04/06 04:01:35;;;;;;;36.53;24.75;;;;;;;;;;5111100;28;20427;-74
2022/04/06 04:04:01;;;;;;;34.85;25.45;;;;;;;;;;5111125;28;20015;-75
2022/04/06 04:06:26;;;;;;;38.15;26.65;;;;;;;;;;5111442;28;20485;-74
2022/04/06 04:08:51;;;;;;;32.03;24.23;;;;;;;;;;5111069;28;20018;-74
2022/04/06 04:11:16;;;;;;;45.83;27.85;;;;;;;;;;5111120;28;20438;-74
2022/04/06 04:13:42;;;;;;;45.38;27.00;;;;;;;;;;5111168;28;20423;-75
2022/04/06 04:16:08;;;;;;;40.60;25.38;;;;;;;;;;5110621;28;20392;-74
2022/04/06 04:18:33;;;;;;;39.10;27.40;;;;;;;;;;5110907;28;20063;-74
2022/04/06 04:23:42;;;;;;;35.78;25.02;;;;;;;;;;5110945;28;20096;-74
2022/04/06 04:26:07;;;;;;;38.50;25.67;;;;;;;;;;5111106;28;20467;-75
2022/04/06 04:28:33;;;;;;;40.28;25.48;;;;;;;;;;5114037;28;21427;-75
2022/04/06 04:30:58;;;;;;;33.47;23.88;;;;;;;;;;5109729;28;20035;-74
2022/04/06 04:33:23;;;;;;;35.83;24.70;;;;;;;;;;5110811;28;20488;-74
2022/04/06 04:35:49;;;;;;;35.72;24.08;;;;;;;;;;5110978;28;20365;-74
2022/04/06 04:38:14;;;;;;;35.53;25.05;;;;;;;;;;5110745;28;20396;-74
2022/04/06 04:40:39;;;;;;;40.05;24.27;;;;;;;;;;5110647;28;20395;-75
2022/04/06 04:43:05;;;;;;;40.50;24.23;;;;;;;;;;5111608;28;20035;-75
2022/04/06 04:45:30;;;;;;;38.85;26.13;;;;;;;;;;5114534;28;20015;-74
2022/04/06 04:47:57;;;;;;;39.10;25.52;;;;;;;;;;5114618;28;20106;-75
2022/04/06 04:50:22;;;;;;;38.97;25.33;;;;;;;;;;5114144;28;20016;-75
2022/04/06 04:52:47;;;;;;;38.88;25.65;;;;;;;;;;5114804;28;20148;-74
2022/04/06 04:55:13;;;;;;;39.28;25.70;;;;;;;;;;5115020;28;20106;-75
2022/04/06 04:57:38;;;;;;;40.83;26.13;;;;;;;;;;5112953;28;20072;-74
2022/04/06 05:00:06;;;;;;;38.10;25.42;;;;;;;;;;5113345;28;20035;-75
2022/04/06 05:02:31;;;;;;;42.25;27.27;;;;;;;;;;5114400;28;20495;-75
2022/04/06 05:04:56;;;;;;;35.20;25.10;;;;;;;;;;5114554;28;20020;-74
2022/04/06 05:07:22;;;;;;;38.42;25.45;;;;;;;;;;5115931;28;20019;-75
2022/04/06 05:09:47;;;;;;;38.05;23.83;;;;;;;;;;5118295;28;20016;-75
2022/04/06 05:12:12;;;;;;;35.22;24.05;;;;;;;;;;5115667;28;20019;-76
2022/04/06 05:14:38;;;;;;;37.47;24.52;;;;;;;;;;5113569;28;20019;-76
2022/04/06 05:17:03;;;;;;;38.55;24.40;;;;;;;;;;5114047;28;20023;-75
2022/04/06 05:19:28;;;;;;;33.40;22.75;;;;;;;;;;5114001;28;20537;-75
2022/04/06 05:21:53;;;;;;;39.60;25.13;;;;;;;;;;5114423;28;20058;-75
2022/04/06 05:24:19;;;;;;;36.40;24.73;;;;;;;;;;5116057;28;20028;-74
2022/04/06 05:26:44;;;;;;;38.78;24.52;;;;;;;;;;5115156;28;20134;-74
2022/04/06 05:29:09;;;;;;;37.47;23.70;;;;;;;;;;5114597;28;20483;-76
2022/04/06 05:31:36;;;;;;;38.65;24.65;;;;;;;;;;5114099;27;20072;-75
2022/04/06 05:34:01;;;;;;;37.72;23.50;;;;;;;;;;5113537;27;20019;-75
2022/04/06 05:36:28;;;;;;;49.42;27.38;;;;;;;;;;5114238;28;20530;-75
2022/04/06 05:38:54;;;;;;;54.78;33.17;;;;;;;;;;5113643;28;20040;-75
2022/04/06 05:41:19;;;;;;;52.25;31.33;;;;;;;;;;5112044;28;20496;-75
2022/04/06 05:43:44;;;;;;;50.70;32.33;;;;;;;;;;5113681;28;20016;-75
2022/04/06 05:46:09;;;;;;;46.45;28.35;;;;;;;;;;5111713;28;20041;-76
2022/04/06 05:48:35;;;;;;;44.78;29.60;;;;;;;;;;5112758;28;20411;-76
2022/04/06 05:51:01;;;;;;;33.78;24.77;;;;;;;;;;5114905;27;20122;-78
2022/04/06 05:53:26;;;;;;;35.13;23.63;;;;;;;;;;5122776;27;20033;-76
2022/04/06 05:55:51;;;;;;;33.80;24.88;;;;;;;;;;5131506;27;20076;-75
2022/04/06 05:58:17;;;;;;;39.25;25.35;;;;;;;;;;5116598;27;20039;-76
2022/04/06 06:00:42;;;;;;;35.55;23.83;;;;;;;;;;5122702;27;20434;-76
2022/04/06 06:03:07;;;;;;;42.40;24.60;;;;;;;;;;5120889;27;20012;-76
2022/04/06 06:05:32;;;;;;;51.53;26.92;;;;;;;;;;5123025;27;20042;-75
2022/04/06 06:07:58;;;;;;;43.85;27.17;;;;;;;;;;5124331;27;20471;-76
2022/04/06 06:10:23;;;;;;;63.95;32.72;;;;;;;;;;5122319;27;20462;-76
2022/04/06 06:12:48;;;;;;;64.07;30.67;;;;;;;;;;5122716;27;20019;-76
2022/04/06 06:15:14;;;;;;;55.00;29.67;;;;;;;;;;5120530;27;20085;-76
2022/04/06 06:17:39;;;;;;;54.10;28.77;;;;;;;;;;5123738;27;20498;-76
2022/04/06 06:20:07;;;;;;;37.40;25.23;;;;;;;;;;5119935;27;20054;-77
2022/04/06 06:22:32;;;;;;;41.50;24.70;;;;;;;;;;5119613;27;20037;-75
2022/04/06 06:24:58;;;;;;;48.78;24.92;;;;;;;;;;5122434;27;20421;-77
2022/04/06 06:27:24;;;;;;;38.17;23.15;;;;;;;;;;5120522;27;20012;-76
2022/04/06 06:29:49;;;;;;;38.75;24.65;;;;;;;;;;5120629;27;20019;-76
2022/04/06 06:32:15;;;;;;;35.10;23.40;;;;;;;;;;5119408;27;20034;-75
2022/04/06 06:34:40;;;;;;;46.70;25.25;;;;;;;;;;5117596;27;20358;-75
2022/04/06 06:37:06;;;;;;;43.78;24.35;;;;;;;;;;5121780;27;20015;-76
2022/04/06 06:39:31;;;;;;;37.22;23.45;;;;;;;;;;5122101;27;20132;-75
2022/04/06 06:41:56;;;;;;;40.05;24.42;;;;;;;;;;5119889;27;20015;-75
2022/04/06 06:44:21;;;;;;;39.63;23.70;;;;;;;;;;5120348;27;20362;-75
2022/04/06 06:46:47;;;;;;;37.30;22.25;;;;;;;;;;5120797;27;20026;-75
2022/04/06 06:49:13;;;;;;;40.17;23.40;;;;;;;;;;5120386;27;20722;-77
2022/04/06 06:51:39;;;;;;;36.80;22.88;;;;;;;;;;5121881;27;20023;-76
2022/04/06 06:54:04;;;;;;;32.85;22.92;;;;;;;;;;5120851;27;20016;-75
2022/04/06 06:56:30;;;;;;;33.80;20.73;;;;;;;;;;5120513;27;20038;-74
2022/04/06 06:58:55;;;;;;;46.00;22.35;;;;;;;;;;5122221;27;20053;-74
2022/04/06 07:01:20;;;;;;;32.40;20.48;;;;;;;;;;5121488;27;20068;-76
2022/04/06 07:03:46;;;;;;;30.67;21.77;;;;;;;;;;5120303;27;20038;-75
2022/04/06 07:06:11;;;;;;;35.50;21.23;;;;;;;;;;5121811;27;20085;-75
2022/04/06 07:08:36;;;;;;;36.30;21.67;;;;;;;;;;5121313;27;20098;-76
2022/04/06 07:11:01;;;;;;;36.97;23.08;;;;;;;;;;5113410;28;20088;-77
2022/04/06 07:13:28;;;;;;;36.10;21.98;;;;;;;;;;5120534;27;20051;-75
2022/04/06 07:15:54;;;;;;;39.13;22.30;;;;;;;;;;5119395;27;20444;-76
2022/04/06 07:18:21;;;;;;;37.63;22.60;;;;;;;;;;5129839;27;20058;-75
2022/04/06 07:20:47;;;;;;;34.03;21.35;;;;;;;;;;5133380;27;20015;-77
2022/04/06 07:23:12;;;;;;;34.17;21.50;;;;;;;;;;5112913;27;20038;-75
2022/04/06 07:25:39;;;;;;;36.15;23.20;;;;;;;;;;5120882;27;20015;-72
2022/04/06 07:28:05;;;;;;;37.95;20.73;;;;;;;;;;5112533;27;20035;-77
2022/04/06 07:30:30;;;;;;;32.28;22.05;;;;;;;;;;5119285;27;20038;-75
2022/04/06 07:32:57;;;;;;;34.47;21.52;;;;;;;;;;5119645;27;20038;-75
2022/04/06 07:35:23;;;;;;;35.80;21.75;;;;;;;;;;5119372;27;20081;-75
2022/04/06 07:37:49;;;;;;;29.08;22.10;;;;;;;;;;5120499;27;20052;-75
2022/04/06 07:40:15;;;;;;;30.83;22.48;;;;;;;;;;5120118;28;20478;-75
2022/04/06 07:42:41;;;;;;;33.92;21.65;;;;;;;;;;5119381;27;20086;-75
2022/04/06 07:45:07;;;;;;;38.40;22.45;;;;;;;;;;5119483;27;20468;-76
2022/04/06 07:47:33;;;;;;;31.33;22.13;;;;;;;;;;5118219;27;20372;-75
2022/04/06 07:50:00;;;;;;;29.77;22.20;;;;;;;;;;5121323;27;20019;-76
2022/04/06 07:52:26;;;;;;;28.13;20.42;;;;;;;;;;5119752;28;20024;-75
2022/04/06 07:54:51;;;;;;;34.67;22.42;;;;;;;;;;5120837;28;20061;-76
2022/04/06 07:57:19;;;;;;;31.73;22.73;;;;;;;;;;5120171;28;20020;-76
2022/04/06 07:59:44;;;;;;;28.55;21.50;;;;;;;;;;5117553;28;20022;-76
2022/04/06 08:02:09;;;;;;;31.20;21.50;;;;;;;;;;5121365;28;20015;-76
2022/04/06 08:04:34;;;;;;;31.03;22.63;;;;;;;;;;5120890;28;20019;-74
2022/04/06 08:07:00;;;;;;;34.10;23.30;;;;;;;;;;5120735;28;20260;-75
2022/04/06 08:09:25;;;;;;;32.25;23.15;;;;;;;;;;5114573;28;20820;-76
2022/04/06 08:11:50;;;;;;;30.27;23.33;;;;;;;;;;5116200;28;20023;-75
2022/04/06 08:14:15;;;;;;;31.77;23.37;;;;;;;;;;5120873;28;20020;-75
2022/04/06 08:16:42;;;;;;;29.83;22.95;;;;;;;;;;5113916;28;20054;-76
2022/04/06 08:19:07;;;;;;;26.92;22.27;;;;;;;;;;5106115;27;20480;-76
2022/04/06 08:21:33;;;;;;;29.47;22.67;;;;;;;;;;5122727;27;20023;-74
2022/04/06 08:24:01;;;;;;;28.07;21.90;;;;;;;;;;5124432;27;20615;-77
2022/04/06 08:26:27;;;;;;;30.02;23.20;;;;;;;;;;5123774;27;20361;-75
2022/04/06 08:28:53;;;;;;;29.85;23.13;;;;;;;;;;5116479;27;20034;-75
2022/04/06 08:31:19;;;;;;;30.15;23.42;;;;;;;;;;5114107;27;20050;-76
2022/04/06 08:33:45;;;;;;;29.63;23.57;;;;;;;;;;5123514;27;20019;-77
2022/04/06 08:36:12;;;;;;;30.88;24.73;;;;;;;;;;5121353;27;20659;-76
2022/04/06 08:38:37;;;;;;;33.50;23.08;;;;;;;;;;5122906;27;20395;-74
2022/04/06 08:41:03;;;;;;;28.90;22.95;;;;;;;;;;5124054;27;20019;-74
2022/04/06 08:43:28;;;;;;;29.43;22.97;;;;;;;;;;5121979;27;20026;-75
2022/04/06 08:45:54;;;;;;;29.47;23.67;;;;;;;;;;5114590;27;20023;-75
2022/04/06 08:48:20;;;;;;;28.58;24.83;;;;;;;;;;5117910;27;20286;-74
2022/04/06 08:50:45;;;;;;;32.60;23.85;;;;;;;;;;5117324;27;20028;-76
2022/04/06 08:53:12;;;;;;;36.95;25.42;;;;;;;;;;5129872;27;20489;-77
2022/04/06 08:55:37;;;;;;;29.33;23.92;;;;;;;;;;5133980;27;20492;-75
2022/04/06 08:58:03;;;;;;;28.50;25.40;;;;;;;;;;5115513;27;20063;-75
2022/04/06 09:00:29;;;;;;;31.42;25.17;;;;;;;;;;5116777;27;20027;-75
2022/04/06 09:02:54;;;;;;;38.97;24.27;;;;;;;;;;5121749;27;20037;-76
2022/04/06 09:05:23;;;;;;;31.55;25.27;;;;;;;;;;5134784;27;20019;-75
2022/04/06 09:07:51;;;;;;;33.67;25.75;;;;;;;;;;5123232;27;20085;-75
2022/04/06 09:10:26;;;;;;;31.83;25.48;;;;;;;;;;5122196;27;20060;-75
2022/04/06 09:12:51;;;;;;;;;;;;;;;;;;5116448;27;20027;-74
2022/04/06 09:15:23;;;;;;;31.77;24.85;;;;;;;;;;5127851;27;20018;-75
2022/04/06 09:17:49;;;;;;;31.90;25.00;;;;;;;;;;5130672;27;20039;-74
2022/04/06 09:20:15;;;;;;;32.55;25.58;;;;;;;;;;5113718;28;20054;-75
2022/04/06 09:22:41;;;;;;;29.75;26.10;;;;;;;;;;5115528;27;20035;-75
2022/04/06 09:25:07;;;;;;;30.38;26.48;;;;;;;;;;5114287;27;20520;-75
2022/04/06 09:27:32;;;;;;;31.75;26.55;;;;;;;;;;5116964;27;20106;-74
2022/04/06 09:30:03;;;;;;;32.30;25.80;;;;;;;;;;5136743;27;20026;-76
2022/04/06 09:32:28;;;;;;;34.75;25.88;;;;;;;;;;5138904;27;20019;-74
2022/04/06 09:34:53;;;;;;;34.73;26.50;;;;;;;;;;5134192;27;20014;-75
2022/04/06 09:37:26;;;;;;;30.67;25.43;;;;;;;;;;5113116;27;20869;-74
2022/04/06 09:39:52;;;;;;;34.13;26.88;;;;;;;;;;5112682;28;20271;-75
2022/04/06 09:42:21;;;;;;;31.63;27.23;;;;;;;;;;5113207;28;20027;-74
2022/04/06 09:47:38;;;;;;;32.22;26.35;;;;;;;;;;5113421;28;20072;-73
2022/04/06 09:50:11;;;;;;;29.95;25.45;;;;;;;;;;5112982;28;20714;-74
2022/04/06 09:52:36;;;;;;;30.40;24.08;;;;;;;;;;5112985;28;20380;-75
2022/04/06 09:55:04;;;;;;;38.83;26.88;;;;;;;;;;5113254;28;20027;-75
2022/04/06 09:57:29;;;;;;;32.72;24.58;;;;;;;;;;5113182;28;20023;-75
2022/04/06 09:59:56;;;;;;;28.45;24.08;;;;;;;;;;5111110;28;20016;-75
2022/04/06 10:02:22;;;;;;;32.72;27.05;;;;;;;;;;5112347;28;20024;-75
2022/04/06 10:04:49;;;;;;;34.60;26.05;;;;;;;;;;5112887;28;20023;-75
2022/04/06 10:07:14;;;;;;;28.52;23.73;;;;;;;;;;5111755;28;20018;-74
2022/04/06 10:09:41;;;;;;;30.50;24.55;;;;;;;;;;5113082;27;20019;-75
2022/04/06 10:12:07;;;;;;;28.20;24.92;;;;;;;;;;5133216;27;20023;-75
2022/04/06 10:14:33;;;;;;;26.65;23.80;;;;;;;;;;5113509;27;20073;-75
2022/04/06 10:16:58;;;;;;;27.15;23.75;;;;;;;;;;5121994;27;20015;-74
2022/04/06 10:19:28;;;;;;;25.60;21.60;;;;;;;;;;5133194;27;20027;-75
2022/04/06 10:21:59;;;;;;;25.45;22.75;;;;;;;;;;5126361;27;20024;-75
2022/04/06 10:24:28;;;;;;;25.88;21.52;;;;;;;;;;5112088;28;20016;-76
2022/04/06 10:27:03;;;;;;;22.95;20.55;;;;;;;;;;5112211;28;20468;-75
2022/04/06 10:29:28;;;;;;;23.13;20.53;;;;;;;;;;5112949;27;20015;-75
2022/04/06 10:31:54;;;;;;;28.80;21.63;;;;;;;;;;5121895;27;20949;-76
2022/04/06 10:34:24;;;;;;;27.60;22.08;;;;;;;;;;5119027;27;20267;-75
2022/04/06 10:37:02;;;;;;;31.92;22.63;;;;;;;;;;5120254;27;20019;-76
2022/04/06 10:39:27;;;;;;;26.13;23.25;;;;;;;;;;5131066;27;20116;-75
2022/04/06 10:42:11;;;;;;;27.77;22.67;;;;;;;;;;5131441;27;20023;-74
2022/04/06 10:44:36;;;;;;;27.98;23.45;;;;;;;;;;5132454;27;20019;-76
2022/04/06 10:47:06;;;;;;;27.38;21.20;;;;;;;;;;5132589;27;20064;-75
2022/04/06 10:49:31;;;;;;;28.30;24.40;;;;;;;;;;5131229;27;20019;-75
2022/04/06 10:51:58;;;;;;;28.67;21.87;;;;;;;;;;5133225;27;20051;-75
2022/04/06 10:54:27;;;;;;;30.33;22.90;;;;;;;;;;5118462;27;20018;-74
2022/04/06 10:56:53;;;;;;;23.40;20.90;;;;;;;;;;5117963;27;20028;-74
2022/04/06 10:59:22;;;;;;;26.05;22.42;;;;;;;;;;5121827;27;20038;-76
2022/04/06 11:01:48;;;;;;;26.40;23.50;;;;;;;;;;5116123;27;20030;-74
2022/04/06 11:04:18;;;;;;;26.25;21.35;;;;;;;;;;5116538;27;20421;-75
2022/04/06 11:06:44;;;;;;;27.30;21.60;;;;;;;;;;5120977;27;20148;-74
2022/04/06 11:12:05;;;;;;;;;;;;;;;;;;5132433;27;20034;-74
2022/04/06 11:14:30;;;;;;;29.55;21.42;;;;;;;;;;5131884;27;19900;-74
2022/04/06 11:16:56;;;;;;;29.67;21.33;;;;;;;;;;5122791;27;20545;-75
2022/04/06 11:19:21;;;;;;;23.35;19.05;;;;;;;;;;5125853;27;20704;-74
2022/04/06 11:21:51;;;;;;;28.55;20.08;;;;;;;;;;5129251;27;20059;-75
2022/04/06 11:24:18;;;;;;;25.25;20.52;;;;;;;;;;5131770;27;20022;-74
2022/04/06 11:26:43;;;;;;;25.33;20.40;;;;;;;;;;5132014;27;20404;-76
2022/04/06 11:29:08;;;;;;;23.87;19.60;;;;;;;;;;5126129;27;20019;-75
2022/04/06 11:31:34;;;;;;;29.80;22.52;;;;;;;;;;5132034;27;20736;-75
2022/04/06 11:33:59;;;;;;;27.02;20.55;;;;;;;;;;5123105;27;20034;-75
2022/04/06 11:36:24;;;;;;;26.40;20.43;;;;;;;;;;5116739;27;20024;-75
2022/04/06 11:38:50;;;;;;;25.10;19.67;;;;;;;;;;5126173;27;20314;-76
2022/04/06 11:41:15;;;;;;;23.98;19.10;;;;;;;;;;5121867;27;20054;-75
2022/04/06 11:43:42;;;;;;;25.25;19.40;;;;;;;;;;5115066;28;20008;-76
2022/04/06 11:46:07;;;;;;;27.95;22.38;;;;;;;;;;5112848;28;20015;-74
2022/04/06 11:48:39;;;;;;;25.25;19.73;;;;;;;;;;5111631;28;20027;-74
2022/04/06 11:51:04;;;;;;;22.75;18.77;;;;;;;;;;5109426;28;20008;-74
2022/04/06 11:53:30;;;;;;;24.90;19.83;;;;;;;;;;5124207;27;20475;-75
2022/04/06 11:55:55;;;;;;;28.65;20.90;;;;;;;;;;5131564;28;20589;-76
2022/04/06 11:58:48;;;;;;;23.90;18.23;;;;;;;;;;5130864;27;20046;-76
2022/04/06 12:01:15;;;;;;;23.08;18.45;;;;;;;;;;5127239;28;20127;-75
2022/04/06 12:03:41;;;;;;;23.45;19.42;;;;;;;;;;5116512;28;20026;-75
2022/04/06 12:06:09;;;;;;;26.83;19.10;;;;;;;;;;5111130;28;20026;-75
2022/04/06 12:08:35;;;;;;;24.63;17.73;;;;;;;;;;5111862;28;20020;-75
2022/04/06 12:11:01;;;;;;;25.77;18.90;;;;;;;;;;5111209;28;20494;-74
2022/04/06 12:13:30;;;;;;;23.88;19.02;;;;;;;;;;5109704;28;20030;-75
2022/04/06 12:15:56;;;;;;;25.58;18.13;;;;;;;;;;5109780;28;20552;-74
2022/04/06 12:18:23;;;;;;;25.60;17.98;;;;;;;;;;5110561;28;20127;-75
2022/04/06 12:20:48;;;;;;;26.60;17.95;;;;;;;;;;5109648;28;20480;-74
2022/04/06 12:23:14;;;;;;;23.77;17.67;;;;;;;;;;5111286;28;20027;-76
2022/04/06 12:25:40;;;;;;;19.30;15.40;;;;;;;;;;5109549;28;20043;-73
2022/04/06 12:28:17;;;;;;;22.05;15.75;;;;;;;;;;5100345;28;20054;-74
2022/04/06 12:30:51;;;;;;;18.75;14.82;;;;;;;;;;5125750;27;20021;-75
2022/04/06 12:33:31;;;;;;;17.08;13.25;;;;;;;;;;5117530;28;20077;-76
2022/04/06 12:36:19;;;;;;;19.65;13.55;;;;;;;;;;5119630;28;20464;-75
2022/04/06 12:39:03;;;;;;;22.30;14.95;;;;;;;;;;5129933;28;20031;-73
2022/04/06 12:41:29;;;;;;;16.92;12.65;;;;;;;;;;5105977;28;20052;-73
2022/04/06 12:43:55;;;;;;;17.55;13.23;;;;;;;;;;5119775;28;20031;-74
2022/04/06 12:46:36;;;;;;;19.67;13.23;;;;;;;;;;5124587;27;20389;-70
2022/04/06 12:49:19;;;;;;;19.63;13.07;;;;;;;;;;5113307;28;20047;-71
2022/04/06 12:51:44;;;;;;;16.73;11.63;;;;;;;;;;5121712;28;20441;-76
2022/04/06 12:54:09;;;;;;;17.70;13.27;;;;;;;;;;5120768;28;20122;-76
2022/04/06 12:56:35;;;;;;;16.70;11.23;;;;;;;;;;5114567;28;20020;-73
2022/04/06 12:59:04;;;;;;;17.93;12.43;;;;;;;;;;5125425;28;20027;-74
2022/04/06 13:01:30;;;;;;;16.73;11.45;;;;;;;;;;5115069;28;20287;-75
2022/04/06 13:03:56;;;;;;;19.05;9.52;;;;;;;;;;5120611;28;20057;-77
2022/04/06 13:06:21;;;;;;;11.27;9.00;;;;;;;;;;5119115;27;20016;-76
2022/04/06 13:08:47;;;;;;;13.73;9.93;;;;;;;;;;5130766;27;20061;-76
2022/04/06 13:11:12;;;;;;;12.63;9.07;;;;;;;;;;5111695;28;20483;-75
2022/04/06 13:13:37;;;;;;;14.68;9.93;;;;;;;;;;5119847;27;20800;-75
2022/04/06 13:16:02;;;;;;;17.17;9.90;;;;;;;;;;5129260;27;20084;-76
2022/04/06 13:18:28;;;;;;;16.77;10.88;;;;;;;;;;5119024;27;20036;-75
2022/04/06 13:20:53;;;;;;;14.18;9.90;;;;;;;;;;5114076;27;20027;-76
2022/04/06 13:23:18;;;;;;;18.80;11.73;;;;;;;;;;5113243;28;20065;-74
2022/04/06 13:25:44;;;;;;;14.95;10.23;;;;;;;;;;5111523;28;20283;-75
2022/04/06 13:28:09;;;;;;;14.02;9.05;;;;;;;;;;5112716;28;20015;-77
2022/04/06 13:30:35;;;;;;;14.75;9.48;;;;;;;;;;5129411;27;20015;-77
2022/04/06 13:33:00;;;;;;;11.75;9.32;;;;;;;;;;5116346;27;20487;-76
2022/04/06 13:35:25;;;;;;;12.30;9.15;;;;;;;;;;5133257;27;20022;-77
2022/04/06 13:37:51;;;;;;;12.32;9.10;;;;;;;;;;5124817;27;20027;-76
2022/04/06 13:40:16;;;;;;;15.60;9.25;;;;;;;;;;5126466;27;20019;-76
2022/04/06 13:42:41;;;;;;;11.97;9.63;;;;;;;;;;5114089;27;20023;-76
2022/04/06 13:45:07;;;;;;;14.25;9.05;;;;;;;;;;5130415;27;20248;-76
2022/04/06 13:47:32;;;;;;;13.73;8.93;;;;;;;;;;5113692;27;20016;-75
2022/04/06 13:49:57;;;;;;;14.10;10.17;;;;;;;;;;5119253;27;20371;-72
2022/04/06 13:52:23;;;;;;;17.98;10.90;;;;;;;;;;5125262;27;20286;-74
2022/04/06 13:54:48;;;;;;;11.75;8.98;;;;;;;;;;5123704;27;20144;-74
2022/04/06 13:57:13;;;;;;;16.70;9.73;;;;;;;;;;5121174;27;20018;-73
2022/04/06 13:59:39;;;;;;;13.35;9.90;;;;;;;;;;5119479;27;20110;-70
2022/04/06 14:02:04;;;;;;;13.32;10.00;;;;;;;;;;5117554;27;20024;-73
2022/04/06 14:04:29;;;;;;;15.70;11.23;;;;;;;;;;5119229;27;20045;-73
2022/04/06 14:06:55;;;;;;;15.27;11.32;;;;;;;;;;5122177;27;20020;-73
2022/04/06 14:09:22;;;;;;;17.63;10.27;;;;;;;;;;5118912;27;20468;-72
2022/04/06 14:11:49;;;;;;;13.90;8.73;;;;;;;;;;5124829;27;20026;-73
2022/04/06 14:14:14;;;;;;;15.88;9.85;;;;;;;;;;5123557;27;20388;-73
2022/04/06 14:16:40;;;;;;;12.93;9.53;;;;;;;;;;5122118;27;20118;-72
2022/04/06 14:19:06;;;;;;;19.90;10.18;;;;;;;;;;5122877;27;20626;-73
2022/04/06 14:21:34;;;;;;;14.05;9.88;;;;;;;;;;5121455;27;20091;-73
2022/04/06 14:24:01;;;;;;;15.05;10.82;;;;;;;;;;5120842;27;20023;-73
2022/04/06 14:26:26;;;;;;;13.35;10.35;;;;;;;;;;5119615;27;20054;-72